createdAt,value
2023-03-02T00:00:10.854Z,101044.47
2023-03-02T00:02:51.155Z,101050.34
2023-03-02T00:05:26.834Z,101039.09
2023-03-02T00:08:03.160Z,101041.41
2023-03-02T00:10:39.353Z,101035.62
2023-03-02T00:13:15.031Z,101038.75
2023-03-02T00:15:49.296Z,101040.28
2023-03-02T00:18:23.827Z,101041.03
2023-03-02T00:20:59.482Z,101042.97
2023-03-02T00:23:34.052Z,101041.44
2023-03-02T00:26:08.565Z,101035.62
2023-03-02T00:28:43.613Z,101034.47
2023-03-02T00:31:19.160Z,101030.56
2023-03-02T00:33:55.049Z,101022.78
2023-03-02T00:36:30.672Z,101023.94
2023-03-02T00:39:05.701Z,101019.69
2023-03-02T00:41:44.324Z,101008.06
2023-03-02T00:44:19.602Z,101004.19
2023-03-02T00:46:53.962Z,101010.41
2023-03-02T00:49:28.710Z,101001.47
2023-03-02T00:52:04.448Z,100995.28
2023-03-02T00:54:38.931Z,100995.66
2023-03-02T00:57:13.412Z,100996.44
2023-03-02T00:59:48.485Z,100988.28
2023-03-02T01:02:23.629Z,100992.25
2023-03-02T01:04:58.613Z,100993.34
2023-03-02T01:07:34.932Z,100988.34
2023-03-02T01:10:11.442Z,100980.53
2023-03-02T01:12:48.728Z,100975.16
2023-03-02T01:15:23.252Z,100968.19
2023-03-02T01:17:57.661Z,100968.94
2023-03-02T01:20:33.676Z,100973.59
2023-03-02T01:23:09.474Z,100976.34
2023-03-02T01:25:44.177Z,100974.03
2023-03-02T01:28:18.515Z,100963.94
2023-03-02T01:30:54.482Z,100967.00
2023-03-02T01:33:28.626Z,100967.78
2023-03-02T01:36:03.482Z,100960.41
2023-03-02T01:38:39.150Z,100960.03
2023-03-02T01:41:14.025Z,100966.25
2023-03-02T01:43:48.384Z,100961.22
2023-03-02T01:46:24.901Z,100963.94
2023-03-02T01:49:01.950Z,100957.72
2023-03-02T01:51:44.846Z,100956.94
2023-03-02T01:54:24.026Z,100955.37
2023-03-02T01:57:01.245Z,100953.44
2023-03-02T01:59:38.858Z,100959.66
2023-03-02T02:02:13.799Z,100953.81
2023-03-02T02:04:50.308Z,100957.69
2023-03-02T02:07:24.483Z,100957.69
2023-03-02T02:10:01.744Z,100958.47
2023-03-02T02:12:36.620Z,100974.78
2023-03-02T02:15:11.994Z,100955.34
2023-03-02T02:17:46.336Z,100962.69
2023-03-02T02:20:29.043Z,100963.06
2023-03-02T02:23:14.138Z,100953.34
2023-03-02T02:26:18.559Z,100954.12
2023-03-02T02:28:58.221Z,100956.84
2023-03-02T02:31:39.346Z,100958.78
2023-03-02T02:34:22.739Z,100954.12
2023-03-02T02:37:02.078Z,100951.41
2023-03-02T02:39:40.400Z,100956.84
2023-03-02T02:42:20.480Z,100949.91
2023-03-02T02:44:58.826Z,100951.06
2023-03-02T02:47:34.946Z,100955.34
2023-03-02T02:50:19.828Z,100947.59
2023-03-02T02:52:58.904Z,100944.47
2023-03-02T02:55:35.129Z,100944.12
2023-03-02T02:58:24.020Z,100949.16
2023-03-02T03:00:59.211Z,100939.09
2023-03-02T03:03:36.242Z,100937.53
2023-03-02T03:06:18.677Z,100943.34
2023-03-02T03:08:57.104Z,100941.41
2023-03-02T03:11:33.440Z,100939.09
2023-03-02T03:14:11.628Z,100936.38
2023-03-02T03:16:47.905Z,100939.84
2023-03-02T03:19:24.339Z,100930.56
2023-03-02T03:22:01.387Z,100936.41
2023-03-02T03:24:37.205Z,100948.41
2023-03-02T03:27:14.276Z,100934.44
2023-03-02T03:29:50.638Z,100941.06
2023-03-02T03:32:25.479Z,100931.34
2023-03-02T03:35:00.387Z,100932.50
2023-03-02T03:37:35.864Z,100928.63
2023-03-02T03:40:12.562Z,100925.13
2023-03-02T03:42:48.175Z,100920.47
2023-03-02T03:45:24.367Z,100936.41
2023-03-02T03:47:59.027Z,100934.84
2023-03-02T03:50:33.944Z,100938.72
2023-03-02T03:53:08.678Z,100934.84
2023-03-02T03:55:43.205Z,100943.38
2023-03-02T03:58:17.717Z,100939.50
2023-03-02T04:00:54.537Z,100937.16
2023-03-02T04:03:29.346Z,100933.69
2023-03-02T04:06:08.226Z,100925.91
2023-03-02T04:08:42.780Z,100935.22
2023-03-02T04:11:17.296Z,100939.09
2023-03-02T04:13:51.962Z,100941.03
2023-03-02T04:16:28.045Z,100936.38
2023-03-02T04:19:02.925Z,100939.09
2023-03-02T04:21:38.293Z,100949.59
2023-03-02T04:24:13.904Z,100950.75
2023-03-02T04:26:49.681Z,100962.34
2023-03-02T04:29:24.562Z,100954.50
2023-03-02T04:32:00.550Z,100952.59
2023-03-02T04:34:35.853Z,100962.53
2023-03-02T04:37:10.144Z,100961.97
2023-03-02T04:39:47.555Z,100961.94
2023-03-02T04:42:22.357Z,100962.03
2023-03-02T04:44:56.899Z,100958.19
2023-03-02T04:47:32.484Z,100958.72
2023-03-02T04:50:09.536Z,100951.81
2023-03-02T04:52:43.759Z,100952.94
2023-03-02T04:55:21.330Z,100956.47
2023-03-02T04:57:55.719Z,100960.38
2023-03-02T05:00:34.098Z,100953.06
2023-03-02T05:03:09.898Z,100956.94
2023-03-02T05:05:44.430Z,100974.38
2023-03-02T05:08:18.642Z,100959.22
2023-03-02T05:10:53.573Z,100966.16
2023-03-02T05:13:28.576Z,100960.97
2023-03-02T05:16:03.309Z,100969.50
2023-03-02T05:18:39.263Z,100972.22
2023-03-02T05:21:15.546Z,100962.06
2023-03-02T05:23:50.204Z,100962.19
2023-03-02T05:26:25.055Z,100957.59
2023-03-02T05:28:59.601Z,100939.41
2023-03-02T05:31:36.811Z,100958.34
2023-03-02T05:34:14.656Z,100963.13
2023-03-02T05:36:57.246Z,100962.78
2023-03-02T05:39:31.486Z,100970.06
2023-03-02T05:42:06.451Z,100963.50
2023-03-02T05:44:40.699Z,100963.66
2023-03-02T05:47:15.325Z,100970.22
2023-03-02T05:49:51.164Z,100977.91
2023-03-02T05:52:25.709Z,100979.91
2023-03-02T05:54:59.950Z,100984.62
2023-03-02T05:57:34.911Z,100981.44
2023-03-02T06:00:11.813Z,100984.50
2023-03-02T06:02:49.629Z,100951.41
2023-03-02T06:05:25.853Z,100969.34
2023-03-02T06:08:00.275Z,100972.09
2023-03-02T06:10:36.666Z,100983.72
2023-03-02T06:13:12.045Z,100987.22
2023-03-02T06:15:46.591Z,100963.78
2023-03-02T06:18:20.905Z,100964.06
2023-03-02T06:20:56.881Z,100981.41
2023-03-02T06:23:32.167Z,100973.56
2023-03-02T06:26:09.843Z,100973.88
2023-03-02T06:28:52.580Z,100984.12
2023-03-02T06:34:05.125Z,100990.34
2023-03-02T06:36:41.073Z,100963.91
2023-03-02T06:39:16.876Z,100968.31
2023-03-02T06:41:51.649Z,100978.75
2023-03-02T06:44:25.898Z,100978.34
2023-03-02T06:47:00.384Z,100991.28
2023-03-02T06:49:34.907Z,100992.13
2023-03-02T06:52:11.138Z,101004.78
2023-03-02T06:54:45.445Z,101007.56
2023-03-02T06:57:19.939Z,101006.19
2023-03-02T06:59:54.624Z,100999.22
2023-03-02T07:02:56.565Z,101003.06
2023-03-02T07:05:32.347Z,101003.06
2023-03-02T07:08:06.938Z,101010.13
2023-03-02T07:10:41.684Z,101014.00
2023-03-02T07:13:16.007Z,101020.59
2023-03-02T07:15:50.613Z,101020.22
2023-03-02T07:18:26.512Z,101021.69
2023-03-02T07:21:01.764Z,101017.41
2023-03-02T07:23:37.325Z,101014.62
2023-03-02T07:26:11.897Z,101021.94
2023-03-02T07:28:46.130Z,101024.97
2023-03-02T07:31:20.843Z,101021.03
2023-03-02T07:33:56.543Z,101010.41
2023-03-02T07:36:31.248Z,101016.19
2023-03-02T07:39:05.765Z,101015.41
2023-03-02T07:41:40.416Z,101015.31
2023-03-02T07:44:14.859Z,101005.91
2023-03-02T07:46:49.521Z,101009.72
2023-03-02T07:49:25.227Z,101007.03
2023-03-02T07:51:59.980Z,100999.63
2023-03-02T07:54:34.256Z,101005.34
2023-03-02T07:57:08.811Z,101000.88
2023-03-02T12:57:21.360Z,100768.00
2023-03-02T13:00:03.428Z,100768.00
2023-03-02T13:02:38.869Z,100767.31
2023-03-02T13:05:19.991Z,100774.62
2023-03-02T13:07:59.844Z,100771.53
2023-03-02T13:10:37.405Z,100765.91
2023-03-02T13:13:19.342Z,100770.09
2023-03-02T13:15:56.068Z,100764.75
2023-03-02T13:18:32.547Z,100767.66
2023-03-02T13:21:07.527Z,100754.66
2023-03-02T13:23:47.348Z,100758.38
2023-03-02T13:26:27.099Z,100758.31
2023-03-02T13:29:08.770Z,100759.78
2023-03-02T13:31:44.137Z,100753.62
2023-03-02T13:34:23.671Z,100746.44
2023-03-02T13:36:58.205Z,100738.00
2023-03-02T13:39:33.231Z,100739.47
2023-03-02T13:42:08.971Z,100738.13
2023-03-02T13:44:46.428Z,100734.56
2023-03-02T13:47:24.121Z,100737.22
2023-03-02T13:50:08.685Z,100730.81
2023-03-02T13:52:48.614Z,100733.56
2023-03-02T13:55:23.819Z,100722.66
2023-03-02T13:57:59.805Z,100728.72
2023-03-02T14:00:36.993Z,100724.75
2023-03-02T14:03:24.447Z,100727.38
2023-03-02T14:06:00.495Z,100715.37
2023-03-02T14:08:35.236Z,100724.56
2023-03-02T14:41:53.021Z,100714.25
2023-03-02T14:44:28.963Z,100714.25
2023-03-02T14:47:03.207Z,100711.00
2023-03-02T14:49:38.024Z,100711.16
2023-03-02T14:52:17.169Z,100706.97
2023-03-02T14:54:54.753Z,100706.66
2023-03-02T14:57:31.422Z,100706.00
2023-03-02T15:03:01.313Z,100707.41
2023-03-02T15:05:36.370Z,100709.03
2023-03-02T15:08:14.457Z,100707.56
2023-03-02T15:10:50.952Z,100708.78
2023-03-02T15:13:25.414Z,100704.25
2023-03-02T15:16:00.316Z,100713.28
2023-03-02T15:18:37.076Z,100701.69
2023-03-02T15:21:18.282Z,100709.88
2023-03-02T15:23:52.883Z,100714.84
2023-03-02T15:26:27.494Z,100714.38
2023-03-02T15:29:01.842Z,100706.41
2023-03-02T15:31:36.718Z,100710.69
2023-03-02T15:34:13.366Z,100706.31
2023-03-02T15:36:47.919Z,100716.34
2023-03-02T15:39:22.270Z,100708.53
2023-03-02T15:41:56.950Z,100714.47
2023-03-02T15:44:31.514Z,100716.62
2023-03-02T15:47:06.473Z,100712.66
2023-03-02T15:49:42.667Z,100718.72
2023-03-02T15:52:19.779Z,100717.88
2023-03-02T15:54:54.051Z,100719.00
2023-03-02T15:57:28.557Z,100720.56
2023-03-02T16:00:05.181Z,100718.69
2023-03-02T16:02:42.243Z,100725.25
2023-03-02T16:05:18.176Z,100721.63
2023-03-02T16:07:52.854Z,100730.72
2023-03-02T16:10:30.245Z,100732.69
2023-03-02T16:13:07.440Z,100728.19
2023-03-02T16:15:42.676Z,100724.78
2023-03-02T16:18:17.243Z,100705.37
2023-03-02T16:20:53.055Z,100709.97
2023-03-02T16:23:27.676Z,100709.94
2023-03-02T16:26:08.137Z,100714.72
2023-03-02T16:28:42.890Z,100722.28
2023-03-02T16:31:20.199Z,100727.81
2023-03-02T16:33:57.663Z,100729.28
2023-03-02T16:36:33.245Z,100735.91
2023-03-02T16:39:09.105Z,100732.53
2023-03-02T16:41:46.390Z,100730.06
2023-03-02T16:44:22.821Z,100738.81
2023-03-02T16:46:57.566Z,100740.12
2023-03-02T16:49:32.559Z,100731.84
2023-03-02T16:52:08.657Z,100739.44
2023-03-02T16:54:43.311Z,100731.81
2023-03-02T16:57:17.699Z,100740.81
2023-03-02T16:59:53.577Z,100734.16
2023-03-02T17:02:29.343Z,100754.94
2023-03-02T17:05:04.328Z,100756.50
2023-03-02T17:07:40.360Z,100756.47
2023-03-02T17:10:18.334Z,100758.00
2023-03-02T17:12:53.446Z,100756.97
2023-03-02T17:15:28.485Z,100755.03
2023-03-02T17:18:02.973Z,100758.44
2023-03-02T17:20:38.734Z,100765.81
2023-03-02T17:23:16.414Z,100766.00
2023-03-02T17:25:51.071Z,100768.81
2023-03-02T17:28:25.804Z,100771.53
2023-03-02T17:31:02.982Z,100766.00
2023-03-02T17:33:39.699Z,100768.03
2023-03-02T17:36:15.433Z,100762.06
2023-03-02T17:38:51.972Z,100762.56
2023-03-02T17:41:26.874Z,100769.25
2023-03-02T17:44:03.160Z,100770.62
2023-03-02T17:46:38.061Z,100756.59
2023-03-02T17:49:13.730Z,100765.03
2023-03-02T17:51:48.427Z,100765.53
2023-03-02T17:54:24.089Z,100772.44
2023-03-02T17:56:58.662Z,100774.78
2023-03-02T17:59:33.596Z,100781.75
2023-03-02T18:02:08.856Z,100767.84
2023-03-02T18:04:45.011Z,100764.69
2023-03-02T18:07:19.308Z,100770.28
2023-03-02T18:09:57.319Z,100769.06
2023-03-02T18:12:32.017Z,100775.06
2023-03-02T18:15:08.227Z,100781.22
2023-03-02T18:17:43.034Z,100774.19
2023-03-02T18:20:20.331Z,100771.28
2023-03-02T18:22:54.696Z,100773.78
2023-03-02T18:25:30.904Z,100773.50
2023-03-02T18:28:05.720Z,100775.75
2023-03-02T18:30:42.015Z,100777.72
2023-03-02T18:33:16.519Z,100778.22
2023-03-02T18:35:54.386Z,100767.78
2023-03-02T18:38:31.110Z,100783.81
2023-03-02T18:41:09.422Z,100775.31
2023-03-02T18:43:44.444Z,100777.78
2023-03-02T18:46:22.745Z,100780.44
2023-03-02T18:49:00.615Z,100778.28
2023-03-02T18:51:35.676Z,100777.75
2023-03-02T18:54:10.375Z,100780.72
2023-03-02T18:56:46.387Z,100781.72
2023-03-02T18:59:20.619Z,100778.09
2023-03-02T19:01:55.241Z,100781.78
2023-03-02T19:04:30.917Z,100782.97
2023-03-02T19:07:07.143Z,100784.19
2023-03-02T19:09:41.717Z,100780.53
2023-03-02T19:12:18.582Z,100776.53
2023-03-02T19:14:53.178Z,100782.06
2023-03-02T19:17:28.018Z,100779.34
2023-03-02T19:20:03.303Z,100785.59
2023-03-02T19:22:38.594Z,100786.44
2023-03-02T19:25:13.512Z,100784.97
2023-03-02T19:27:49.942Z,100784.19
2023-03-02T19:30:27.209Z,100783.28
2023-03-02T19:33:03.686Z,100786.44
2023-03-02T19:35:39.094Z,100783.28
2023-03-02T19:38:14.028Z,100793.16
2023-03-02T19:40:48.933Z,100797.66
2023-03-02T19:43:25.327Z,100782.50
2023-03-02T19:46:00.847Z,100776.34
2023-03-02T19:48:35.879Z,100767.72
2023-03-02T19:51:12.204Z,100782.47
2023-03-02T19:53:47.249Z,100787.19
2023-03-02T19:56:22.503Z,100783.81
2023-03-02T19:59:00.224Z,100783.44
2023-03-02T20:01:35.076Z,100791.06
2023-03-02T20:04:09.966Z,100792.34
2023-03-02T20:06:44.251Z,100796.06
2023-03-02T20:09:19.687Z,100801.78
2023-03-02T20:11:54.245Z,100800.56
2023-03-02T20:14:34.013Z,100797.56
2023-03-02T20:17:08.565Z,100801.97
2023-03-02T20:19:44.086Z,100802.47
2023-03-02T20:22:18.604Z,100798.94
2023-03-02T20:24:53.521Z,100800.47
2023-03-02T20:27:28.066Z,100796.87
2023-03-02T20:30:07.816Z,100798.22
2023-03-02T20:32:46.221Z,100794.13
2023-03-02T20:35:21.429Z,100800.13
2023-03-02T20:37:58.418Z,100804.94
2023-03-02T20:40:33.600Z,100802.56
2023-03-02T20:43:08.136Z,100801.00
2023-03-02T20:45:45.003Z,100798.16
2023-03-02T20:48:21.523Z,100797.56
2023-03-02T20:50:57.104Z,100787.34
2023-03-02T20:53:31.726Z,100796.37
2023-03-02T20:56:07.138Z,100784.91
2023-03-02T20:58:43.487Z,100794.16
2023-03-02T21:01:20.985Z,100783.63
2023-03-02T21:03:56.093Z,100785.00
2023-03-02T21:06:33.491Z,100781.38
2023-03-02T21:09:10.020Z,100780.69
2023-03-02T21:11:45.709Z,100777.72
2023-03-02T21:14:20.468Z,100774.62
2023-03-02T21:16:56.734Z,100776.28
2023-03-02T21:19:32.656Z,100771.59
2023-03-02T21:22:07.549Z,100777.72
2023-03-02T21:24:42.110Z,100771.25
2023-03-02T21:27:16.842Z,100770.84
2023-03-02T21:30:01.849Z,100764.41
2023-03-02T21:32:41.366Z,100766.59
2023-03-02T21:35:17.853Z,100756.53
2023-03-02T21:37:56.820Z,100734.94
2023-03-02T21:40:37.982Z,100742.13
2023-03-02T21:43:15.421Z,100746.22
2023-03-02T21:45:49.940Z,100748.25
2023-03-02T21:48:25.986Z,100749.69
2023-03-02T21:51:00.523Z,100745.78
2023-03-02T21:53:35.462Z,100744.75
2023-03-02T21:56:10.185Z,100742.81
2023-03-02T21:58:47.370Z,100742.34
2023-03-02T22:01:22.274Z,100743.19
2023-03-02T22:03:58.822Z,100744.81
2023-03-02T22:06:35.198Z,100747.72
2023-03-02T22:09:09.907Z,100744.56
2023-03-02T22:11:52.082Z,100747.88
2023-03-02T22:14:26.922Z,100746.31
2023-03-02T22:17:01.265Z,100741.63
2023-03-02T22:19:39.684Z,100756.56
2023-03-02T22:22:19.124Z,100748.22
2023-03-02T22:24:55.083Z,100743.50
2023-03-02T22:27:31.407Z,100743.25
2023-03-02T22:30:18.209Z,100748.00
2023-03-02T22:32:56.433Z,100748.34
2023-03-02T22:35:32.438Z,100749.50
2023-03-02T22:38:13.425Z,100748.31
2023-03-02T22:40:47.984Z,100739.91
2023-03-02T22:43:26.487Z,100752.56
2023-03-02T22:46:10.206Z,100755.09
2023-03-02T22:48:46.120Z,100753.78
2023-03-02T22:51:24.438Z,100748.25
2023-03-02T22:54:00.584Z,100741.87
2023-03-02T22:56:37.450Z,100738.53
2023-03-02T22:59:20.938Z,100745.91
2023-03-02T23:02:58.079Z,100727.66
2023-03-02T23:05:36.575Z,100727.66
2023-03-02T23:08:21.204Z,100728.34
2023-03-02T23:10:58.789Z,100733.22
2023-03-02T23:13:39.876Z,100733.16
2023-03-02T23:16:19.009Z,100730.66
2023-03-02T23:18:56.975Z,100734.44
2023-03-02T23:21:38.782Z,100726.38
2023-03-02T23:24:13.079Z,100724.91
2023-03-02T23:26:47.708Z,100723.16
2023-03-02T23:29:23.064Z,100724.69
2023-03-02T23:31:58.214Z,100716.31
2023-03-02T23:34:33.835Z,100720.91
2023-03-02T23:37:08.350Z,100717.59
2023-03-02T23:39:44.440Z,100718.81
2023-03-02T23:42:21.350Z,100707.59
2023-03-02T23:44:56.347Z,100718.19
2023-03-02T23:47:30.931Z,100713.84
2023-03-02T23:50:08.919Z,100710.59
2023-03-02T23:52:43.548Z,100711.63
2023-03-02T23:55:18.061Z,100705.22
2023-03-02T23:57:52.772Z,100702.06
